sensor_id;sensor_type;location;lat;lon;timestamp;pressure;altitude;pressure_sealevel;temperature;humidity
57847;BME280;43675;50.030;21.952;2023-08-30T00:01:05;97618.88;;;18.82;95.70
57847;BME280;43675;50.030;21.952;2023-08-30T00:03:35;97609.11;;;18.80;95.58
57847;BME280;43675;50.030;21.952;2023-08-30T00:06:03;97605.27;;;18.79;95.59
57847;BME280;43675;50.030;21.952;2023-08-30T00:08:31;97598.20;;;18.79;95.68
57847;BME280;43675;50.030;21.952;2023-08-30T00:10:58;97603.69;;;18.79;95.50
57847;BME280;43675;50.030;21.952;2023-08-30T00:13:26;97598.93;;;18.78;95.61
57847;BME280;43675;50.030;21.952;2023-08-30T00:15:52;97594.44;;;18.77;95.63
57847;BME280;43675;50.030;21.952;2023-08-30T00:18:19;97592.48;;;18.77;95.53
57847;BME280;43675;50.030;21.952;2023-08-30T00:20:46;97586.48;;;18.75;95.54
57847;BME280;43675;50.030;21.952;2023-08-30T00:23:12;97579.81;;;18.73;95.48
57847;BME280;43675;50.030;21.952;2023-08-30T00:25:39;97575.34;;;18.71;95.60
57847;BME280;43675;50.030;21.952;2023-08-30T00:28:05;97576.81;;;18.69;95.53
57847;BME280;43675;50.030;21.952;2023-08-30T00:30:32;97574.19;;;18.66;95.46
57847;BME280;43675;50.030;21.952;2023-08-30T00:32:59;97578.10;;;18.63;95.54
57847;BME280;43675;50.030;21.952;2023-08-30T00:35:26;97583.34;;;18.61;95.52
57847;BME280;43675;50.030;21.952;2023-08-30T00:37:52;97584.11;;;18.60;95.54
57847;BME280;43675;50.030;21.952;2023-08-30T00:40:23;97583.87;;;18.58;95.63
57847;BME280;43675;50.030;21.952;2023-08-30T00:42:49;97581.39;;;18.57;95.78
57847;BME280;43675;50.030;21.952;2023-08-30T00:45:16;97576.34;;;18.57;95.68
57847;BME280;43675;50.030;21.952;2023-08-30T00:47:43;97574.59;;;18.57;95.66
57847;BME280;43675;50.030;21.952;2023-08-30T00:50:10;97572.75;;;18.57;95.78
57847;BME280;43675;50.030;21.952;2023-08-30T00:52:37;97568.46;;;18.57;95.76
57847;BME280;43675;50.030;21.952;2023-08-30T00:55:04;97563.30;;;18.56;95.75
57847;BME280;43675;50.030;21.952;2023-08-30T00:57:31;97556.10;;;18.55;95.73
57847;BME280;43675;50.030;21.952;2023-08-30T00:59:58;97556.38;;;18.55;95.76
57847;BME280;43675;50.030;21.952;2023-08-30T01:02:24;97557.40;;;18.53;95.79
57847;BME280;43675;50.030;21.952;2023-08-30T01:04:51;97558.52;;;18.51;95.82
57847;BME280;43675;50.030;21.952;2023-08-30T01:07:18;97558.86;;;18.49;95.91
57847;BME280;43675;50.030;21.952;2023-08-30T01:09:45;97559.02;;;18.46;95.78
57847;BME280;43675;50.030;21.952;2023-08-30T01:12:24;97566.79;;;18.44;95.97
57847;BME280;43675;50.030;21.952;2023-08-30T01:15:01;97572.02;;;18.43;95.93
57847;BME280;43675;50.030;21.952;2023-08-30T01:17:32;97576.30;;;18.45;95.96
57847;BME280;43675;50.030;21.952;2023-08-30T01:20:02;97574.94;;;18.45;96.02
57847;BME280;43675;50.030;21.952;2023-08-30T01:25:09;97569.52;;;18.47;96.04
57847;BME280;43675;50.030;21.952;2023-08-30T01:27:39;97568.87;;;18.48;96.12
57847;BME280;43675;50.030;21.952;2023-08-30T01:30:07;97567.88;;;18.49;96.10
57847;BME280;43675;50.030;21.952;2023-08-30T01:32:36;97575.35;;;18.52;96.11
57847;BME280;43675;50.030;21.952;2023-08-30T01:35:05;97577.20;;;18.53;96.12
57847;BME280;43675;50.030;21.952;2023-08-30T01:37:33;97582.36;;;18.53;96.28
57847;BME280;43675;50.030;21.952;2023-08-30T01:40:01;97581.40;;;18.56;96.28
57847;BME280;43675;50.030;21.952;2023-08-30T01:42:29;97581.34;;;18.56;96.31
57847;BME280;43675;50.030;21.952;2023-08-30T01:44:58;97583.63;;;18.60;96.42
57847;BME280;43675;50.030;21.952;2023-08-30T01:47:27;97583.09;;;18.61;96.41
57847;BME280;43675;50.030;21.952;2023-08-30T01:49:55;97581.48;;;18.62;96.33
57847;BME280;43675;50.030;21.952;2023-08-30T01:52:23;97584.33;;;18.65;96.40
57847;BME280;43675;50.030;21.952;2023-08-30T01:54:53;97580.55;;;18.67;96.40
57847;BME280;43675;50.030;21.952;2023-08-30T01:57:20;97578.46;;;18.69;96.49
57847;BME280;43675;50.030;21.952;2023-08-30T01:59:46;97578.30;;;18.69;96.56
57847;BME280;43675;50.030;21.952;2023-08-30T02:02:13;97580.59;;;18.72;96.62
57847;BME280;43675;50.030;21.952;2023-08-30T02:04:40;97575.67;;;18.74;96.65
57847;BME280;43675;50.030;21.952;2023-08-30T02:08:04;97578.31;;;18.75;96.76
57847;BME280;43675;50.030;21.952;2023-08-30T02:10:23;97573.34;;;18.81;96.76
57847;BME280;43675;50.030;21.952;2023-08-30T02:12:53;97571.32;;;18.88;96.75
57847;BME280;43675;50.030;21.952;2023-08-30T02:15:21;97566.74;;;18.93;96.62
57847;BME280;43675;50.030;21.952;2023-08-30T02:17:50;97564.04;;;18.96;96.61
57847;BME280;43675;50.030;21.952;2023-08-30T02:20:18;97569.13;;;18.97;96.57
57847;BME280;43675;50.030;21.952;2023-08-30T02:22:45;97568.95;;;18.98;96.72
57847;BME280;43675;50.030;21.952;2023-08-30T02:25:11;97567.56;;;19.00;96.85
57847;BME280;43675;50.030;21.952;2023-08-30T02:27:38;97569.03;;;19.00;96.84
57847;BME280;43675;50.030;21.952;2023-08-30T02:30:05;97568.85;;;19.02;96.82
57847;BME280;43675;50.030;21.952;2023-08-30T02:32:32;97563.53;;;19.05;96.70
57847;BME280;43675;50.030;21.952;2023-08-30T02:34:58;97557.54;;;19.06;96.66
57847;BME280;43675;50.030;21.952;2023-08-30T02:37:25;97553.34;;;19.06;96.71
57847;BME280;43675;50.030;21.952;2023-08-30T02:39:52;97551.71;;;19.06;96.70
57847;BME280;43675;50.030;21.952;2023-08-30T02:42:18;97546.48;;;19.06;96.67
57847;BME280;43675;50.030;21.952;2023-08-30T02:44:45;97549.71;;;19.05;96.68
57847;BME280;43675;50.030;21.952;2023-08-30T02:47:11;97546.28;;;19.05;96.71
57847;BME280;43675;50.030;21.952;2023-08-30T02:49:38;97541.00;;;19.05;96.65
57847;BME280;43675;50.030;21.952;2023-08-30T02:52:05;97537.70;;;19.04;96.55
57847;BME280;43675;50.030;21.952;2023-08-30T02:54:32;97539.67;;;19.03;96.44
57847;BME280;43675;50.030;21.952;2023-08-30T02:56:58;97536.32;;;19.02;96.57
57847;BME280;43675;50.030;21.952;2023-08-30T02:59:25;97536.52;;;19.00;96.35
57847;BME280;43675;50.030;21.952;2023-08-30T03:01:51;97531.22;;;18.97;96.37
57847;BME280;43675;50.030;21.952;2023-08-30T03:04:18;97534.67;;;18.96;96.29
57847;BME280;43675;50.030;21.952;2023-08-30T03:06:44;97541.67;;;18.93;96.27
57847;BME280;43675;50.030;21.952;2023-08-30T03:09:11;97547.04;;;18.90;96.19
57847;BME280;43675;50.030;21.952;2023-08-30T03:11:38;97553.83;;;18.88;96.19
57847;BME280;43675;50.030;21.952;2023-08-30T03:14:05;97561.06;;;18.87;96.26
57847;BME280;43675;50.030;21.952;2023-08-30T03:16:31;97569.15;;;18.89;96.24
57847;BME280;43675;50.030;21.952;2023-08-30T03:18:58;97570.21;;;18.87;96.29
57847;BME280;43675;50.030;21.952;2023-08-30T03:21:24;97571.09;;;18.86;96.31
57847;BME280;43675;50.030;21.952;2023-08-30T03:23:51;97573.00;;;18.86;96.49
57847;BME280;43675;50.030;21.952;2023-08-30T03:26:17;97575.52;;;18.85;96.51
57847;BME280;43675;50.030;21.952;2023-08-30T03:28:44;97575.73;;;18.85;96.62
57847;BME280;43675;50.030;21.952;2023-08-30T03:31:15;97583.58;;;18.87;96.62
57847;BME280;43675;50.030;21.952;2023-08-30T03:33:43;97589.37;;;18.89;96.72
57847;BME280;43675;50.030;21.952;2023-08-30T03:36:11;97583.98;;;18.90;96.71
57847;BME280;43675;50.030;21.952;2023-08-30T03:38:38;97586.72;;;18.92;96.61
57847;BME280;43675;50.030;21.952;2023-08-30T03:41:05;97588.97;;;18.94;96.59
57847;BME280;43675;50.030;21.952;2023-08-30T03:43:32;97593.95;;;18.94;96.46
57847;BME280;43675;50.030;21.952;2023-08-30T03:46:00;97597.30;;;18.96;96.53
57847;BME280;43675;50.030;21.952;2023-08-30T03:48:27;97601.23;;;18.95;96.29
57847;BME280;43675;50.030;21.952;2023-08-30T03:50:54;97600.70;;;18.94;96.33
57847;BME280;43675;50.030;21.952;2023-08-30T03:53:22;97608.48;;;18.94;96.32
57847;BME280;43675;50.030;21.952;2023-08-30T03:55:49;97601.91;;;18.94;96.23
57847;BME280;43675;50.030;21.952;2023-08-30T03:58:18;97598.80;;;18.94;96.15
57847;BME280;43675;50.030;21.952;2023-08-30T04:00:45;97594.98;;;18.95;95.97
57847;BME280;43675;50.030;21.952;2023-08-30T04:03:13;97596.72;;;18.95;95.93
57847;BME280;43675;50.030;21.952;2023-08-30T04:05:41;97595.23;;;18.96;95.72
57847;BME280;43675;50.030;21.952;2023-08-30T04:08:08;97598.80;;;18.98;95.61
57847;BME280;43675;50.030;21.952;2023-08-30T04:10:36;97603.45;;;19.00;95.56
57847;BME280;43675;50.030;21.952;2023-08-30T04:13:04;97600.40;;;19.00;95.55
57847;BME280;43675;50.030;21.952;2023-08-30T04:15:34;97600.41;;;19.03;95.39
57847;BME280;43675;50.030;21.952;2023-08-30T04:18:01;97601.05;;;19.05;95.19
57847;BME280;43675;50.030;21.952;2023-08-30T04:20:29;97606.05;;;19.05;95.16
57847;BME280;43675;50.030;21.952;2023-08-30T04:22:55;97601.37;;;19.05;94.98
57847;BME280;43675;50.030;21.952;2023-08-30T04:25:22;97597.08;;;19.05;95.10
57847;BME280;43675;50.030;21.952;2023-08-30T04:27:49;97588.38;;;19.04;94.92
57847;BME280;43675;50.030;21.952;2023-08-30T04:30:16;97586.66;;;19.03;94.90
57847;BME280;43675;50.030;21.952;2023-08-30T04:32:43;97586.80;;;19.02;94.87
57847;BME280;43675;50.030;21.952;2023-08-30T04:35:10;97588.28;;;19.00;94.87
57847;BME280;43675;50.030;21.952;2023-08-30T04:37:37;97591.66;;;18.99;94.92
57847;BME280;43675;50.030;21.952;2023-08-30T04:40:05;97587.04;;;18.99;94.94
57847;BME280;43675;50.030;21.952;2023-08-30T04:42:32;97586.70;;;19.00;94.87
57847;BME280;43675;50.030;21.952;2023-08-30T04:44:59;97588.52;;;19.02;94.86
57847;BME280;43675;50.030;21.952;2023-08-30T04:47:26;97588.09;;;19.02;94.84
57847;BME280;43675;50.030;21.952;2023-08-30T04:49:52;97595.57;;;19.04;94.78
57847;BME280;43675;50.030;21.952;2023-08-30T04:52:19;97593.05;;;19.06;94.89
57847;BME280;43675;50.030;21.952;2023-08-30T04:54:46;97591.44;;;19.08;94.84
57847;BME280;43675;50.030;21.952;2023-08-30T04:57:12;97592.48;;;19.09;94.70
57847;BME280;43675;50.030;21.952;2023-08-30T04:59:39;97586.53;;;19.11;94.55
57847;BME280;43675;50.030;21.952;2023-08-30T05:02:06;97586.46;;;19.13;94.42
57847;BME280;43675;50.030;21.952;2023-08-30T05:04:32;97582.00;;;19.13;94.43
57847;BME280;43675;50.030;21.952;2023-08-30T05:07:00;97575.60;;;19.14;94.23
57847;BME280;43675;50.030;21.952;2023-08-30T05:09:27;97577.73;;;19.15;94.17
57847;BME280;43675;50.030;21.952;2023-08-30T05:11:53;97581.46;;;19.16;94.11
57847;BME280;43675;50.030;21.952;2023-08-30T05:14:20;97582.84;;;19.14;93.96
57847;BME280;43675;50.030;21.952;2023-08-30T05:16:46;97589.35;;;19.14;93.92
57847;BME280;43675;50.030;21.952;2023-08-30T05:19:13;97588.36;;;19.13;93.72
57847;BME280;43675;50.030;21.952;2023-08-30T05:21:40;97589.02;;;19.12;93.54
57847;BME280;43675;50.030;21.952;2023-08-30T05:24:06;97586.02;;;19.13;93.57
57847;BME280;43675;50.030;21.952;2023-08-30T05:26:33;97585.05;;;19.15;93.39
57847;BME280;43675;50.030;21.952;2023-08-30T05:29:00;97589.39;;;19.20;93.40
57847;BME280;43675;50.030;21.952;2023-08-30T05:31:26;97591.10;;;19.25;93.14
57847;BME280;43675;50.030;21.952;2023-08-30T05:33:53;97590.02;;;19.31;93.05
57847;BME280;43675;50.030;21.952;2023-08-30T05:36:19;97592.50;;;19.39;93.03
57847;BME280;43675;50.030;21.952;2023-08-30T05:38:46;97600.60;;;19.48;92.64
57847;BME280;43675;50.030;21.952;2023-08-30T05:41:12;97599.14;;;19.54;92.35
57847;BME280;43675;50.030;21.952;2023-08-30T05:43:39;97600.66;;;19.60;91.91
57847;BME280;43675;50.030;21.952;2023-08-30T05:46:05;97598.67;;;19.65;91.65
57847;BME280;43675;50.030;21.952;2023-08-30T05:48:33;97599.45;;;19.71;91.39
57847;BME280;43675;50.030;21.952;2023-08-30T05:50:59;97600.73;;;19.78;91.21
57847;BME280;43675;50.030;21.952;2023-08-30T05:53:26;97599.70;;;19.86;91.03
57847;BME280;43675;50.030;21.952;2023-08-30T05:55:52;97594.67;;;19.97;90.76
57847;BME280;43675;50.030;21.952;2023-08-30T05:58:19;97593.92;;;20.05;90.25
57847;BME280;43675;50.030;21.952;2023-08-30T06:00:46;97594.05;;;20.12;89.89
57847;BME280;43675;50.030;21.952;2023-08-30T06:03:12;97592.56;;;20.16;89.24
57847;BME280;43675;50.030;21.952;2023-08-30T06:05:39;97592.33;;;20.17;88.92
57847;BME280;43675;50.030;21.952;2023-08-30T06:08:05;97592.48;;;20.17;88.52
57847;BME280;43675;50.030;21.952;2023-08-30T06:10:32;97598.27;;;20.16;88.15
57847;BME280;43675;50.030;21.952;2023-08-30T06:12:59;97595.89;;;20.16;88.05
57847;BME280;43675;50.030;21.952;2023-08-30T06:15:25;97598.36;;;20.15;87.98
57847;BME280;43675;50.030;21.952;2023-08-30T06:17:52;97599.38;;;20.16;87.82
57847;BME280;43675;50.030;21.952;2023-08-30T06:20:19;97603.50;;;20.16;87.71
57847;BME280;43675;50.030;21.952;2023-08-30T06:22:46;97606.34;;;20.16;87.49
57847;BME280;43675;50.030;21.952;2023-08-30T06:25:13;97608.95;;;20.17;87.37
57847;BME280;43675;50.030;21.952;2023-08-30T06:27:42;97613.23;;;20.18;87.14
57847;BME280;43675;50.030;21.952;2023-08-30T06:30:10;97617.15;;;20.18;86.96
57847;BME280;43675;50.030;21.952;2023-08-30T06:32:37;97618.48;;;20.22;86.87
57847;BME280;43675;50.030;21.952;2023-08-30T06:35:04;97620.64;;;20.26;86.64
57847;BME280;43675;50.030;21.952;2023-08-30T06:37:31;97623.23;;;20.29;86.62
57847;BME280;43675;50.030;21.952;2023-08-30T06:39:57;97627.35;;;20.33;86.50
57847;BME280;43675;50.030;21.952;2023-08-30T06:42:24;97626.48;;;20.36;86.31
57847;BME280;43675;50.030;21.952;2023-08-30T06:44:50;97628.19;;;20.41;86.23
57847;BME280;43675;50.030;21.952;2023-08-30T06:47:17;97634.56;;;20.46;86.13
57847;BME280;43675;50.030;21.952;2023-08-30T06:49:44;97636.94;;;20.52;85.94
57847;BME280;43675;50.030;21.952;2023-08-30T06:52:10;97633.85;;;20.57;85.74
57847;BME280;43675;50.030;21.952;2023-08-30T06:54:37;97635.23;;;20.61;85.55
57847;BME280;43675;50.030;21.952;2023-08-30T06:57:04;97635.03;;;20.65;85.34
57847;BME280;43675;50.030;21.952;2023-08-30T06:59:31;97630.88;;;20.72;85.21
57847;BME280;43675;50.030;21.952;2023-08-30T07:01:57;97631.73;;;20.79;85.05
57847;BME280;43675;50.030;21.952;2023-08-30T07:04:24;97631.80;;;20.85;84.81
57847;BME280;43675;50.030;21.952;2023-08-30T07:06:52;97633.60;;;20.89;84.67
57847;BME280;43675;50.030;21.952;2023-08-30T07:09:18;97635.12;;;20.92;84.46
57847;BME280;43675;50.030;21.952;2023-08-30T07:11:45;97634.12;;;20.94;84.34
57847;BME280;43675;50.030;21.952;2023-08-30T07:14:12;97635.67;;;20.97;84.08
57847;BME280;43675;50.030;21.952;2023-08-30T07:16:39;97639.70;;;20.96;83.85
57847;BME280;43675;50.030;21.952;2023-08-30T07:19:06;97643.34;;;20.97;83.60
57847;BME280;43675;50.030;21.952;2023-08-30T07:21:32;97641.87;;;21.02;83.48
57847;BME280;43675;50.030;21.952;2023-08-30T07:23:59;97648.46;;;21.07;83.60
57847;BME280;43675;50.030;21.952;2023-08-30T07:26:26;97647.00;;;21.15;83.52
57847;BME280;43675;50.030;21.952;2023-08-30T07:28:52;97650.70;;;21.28;83.40
57847;BME280;43675;50.030;21.952;2023-08-30T07:31:19;97653.09;;;21.44;83.05
57847;BME280;43675;50.030;21.952;2023-08-30T07:33:45;97652.05;;;21.63;82.77
57847;BME280;43675;50.030;21.952;2023-08-30T07:36:12;97651.18;;;21.82;82.21
57847;BME280;43675;50.030;21.952;2023-08-30T07:38:39;97650.61;;;22.01;81.62
57847;BME280;43675;50.030;21.952;2023-08-30T07:41:05;97651.49;;;22.20;81.12
57847;BME280;43675;50.030;21.952;2023-08-30T07:43:32;97653.26;;;22.39;80.62
57847;BME280;43675;50.030;21.952;2023-08-30T07:46:00;97649.98;;;22.57;79.79
57847;BME280;43675;50.030;21.952;2023-08-30T07:48:26;97645.58;;;22.72;79.11
57847;BME280;43675;50.030;21.952;2023-08-30T07:50:53;97643.64;;;22.84;78.62
57847;BME280;43675;50.030;21.952;2023-08-30T07:53:20;97640.83;;;22.92;78.19
57847;BME280;43675;50.030;21.952;2023-08-30T07:55:50;97637.11;;;22.99;77.62
57847;BME280;43675;50.030;21.952;2023-08-30T07:58:17;97634.45;;;23.07;77.23
57847;BME280;43675;50.030;21.952;2023-08-30T08:00:44;97636.38;;;23.17;76.87
57847;BME280;43675;50.030;21.952;2023-08-30T08:03:10;97633.46;;;23.28;76.43
57847;BME280;43675;50.030;21.952;2023-08-30T08:05:37;97634.70;;;23.40;75.90
57847;BME280;43675;50.030;21.952;2023-08-30T08:08:04;97633.80;;;23.51;75.51
57847;BME280;43675;50.030;21.952;2023-08-30T08:10:33;97628.94;;;23.61;75.10
57847;BME280;43675;50.030;21.952;2023-08-30T08:13:00;97624.67;;;23.71;74.68
57847;BME280;43675;50.030;21.952;2023-08-30T08:15:28;97617.84;;;23.80;73.72
57847;BME280;43675;50.030;21.952;2023-08-30T08:17:54;97617.25;;;23.91;73.43
57847;BME280;43675;50.030;21.952;2023-08-30T08:20:21;97621.48;;;24.01;72.80
57847;BME280;43675;50.030;21.952;2023-08-30T08:22:48;97615.93;;;24.11;72.37
57847;BME280;43675;50.030;21.952;2023-08-30T08:25:15;97611.94;;;24.16;71.79
57847;BME280;43675;50.030;21.952;2023-08-30T08:27:42;97610.49;;;24.21;71.40
57847;BME280;43675;50.030;21.952;2023-08-30T08:30:09;97607.38;;;24.27;71.09
57847;BME280;43675;50.030;21.952;2023-08-30T08:32:36;97610.09;;;24.36;70.36
57847;BME280;43675;50.030;21.952;2023-08-30T08:35:03;97611.39;;;24.42;70.14
57847;BME280;43675;50.030;21.952;2023-08-30T08:37:29;97605.36;;;24.47;70.14
57847;BME280;43675;50.030;21.952;2023-08-30T08:39:56;97608.52;;;24.47;69.71
57847;BME280;43675;50.030;21.952;2023-08-30T08:42:23;97606.02;;;24.45;69.76
57847;BME280;43675;50.030;21.952;2023-08-30T08:44:51;97598.40;;;24.43;69.54
57847;BME280;43675;50.030;21.952;2023-08-30T08:47:20;97601.34;;;24.42;69.03
57847;BME280;43675;50.030;21.952;2023-08-30T08:49:47;97601.02;;;24.44;69.15
57847;BME280;43675;50.030;21.952;2023-08-30T08:52:15;97599.26;;;24.47;68.83
57847;BME280;43675;50.030;21.952;2023-08-30T08:54:42;97598.95;;;24.51;68.65
57847;BME280;43675;50.030;21.952;2023-08-30T08:57:09;97593.24;;;24.56;68.51
57847;BME280;43675;50.030;21.952;2023-08-30T08:59:36;97597.27;;;24.60;68.40
57847;BME280;43675;50.030;21.952;2023-08-30T09:02:03;97601.49;;;24.65;68.35
57847;BME280;43675;50.030;21.952;2023-08-30T09:04:31;97604.08;;;24.71;67.94
57847;BME280;43675;50.030;21.952;2023-08-30T09:07:01;97607.81;;;24.81;67.82
57847;BME280;43675;50.030;21.952;2023-08-30T09:09:28;97606.46;;;24.89;67.33
57847;BME280;43675;50.030;21.952;2023-08-30T09:11:55;97607.52;;;25.01;66.99
57847;BME280;43675;50.030;21.952;2023-08-30T09:14:21;97609.67;;;25.10;66.43
57847;BME280;43675;50.030;21.952;2023-08-30T09:19:22;97612.80;;;25.34;65.59
57847;BME280;43675;50.030;21.952;2023-08-30T09:21:56;97609.77;;;25.48;65.60
57847;BME280;43675;50.030;21.952;2023-08-30T09:24:23;97613.13;;;25.57;64.62
57847;BME280;43675;50.030;21.952;2023-08-30T09:26:52;97617.99;;;25.66;64.00
57847;BME280;43675;50.030;21.952;2023-08-30T09:29:21;97621.85;;;25.77;63.38
57847;BME280;43675;50.030;21.952;2023-08-30T09:31:51;97624.11;;;25.88;63.27
57847;BME280;43675;50.030;21.952;2023-08-30T09:34:22;97626.95;;;25.97;62.92
57847;BME280;43675;50.030;21.952;2023-08-30T09:36:49;97630.52;;;26.05;63.05
57847;BME280;43675;50.030;21.952;2023-08-30T09:39:16;97631.35;;;26.15;62.26
57847;BME280;43675;50.030;21.952;2023-08-30T09:41:49;97635.13;;;26.13;61.98
57847;BME280;43675;50.030;21.952;2023-08-30T09:44:17;97634.20;;;26.07;61.76
57847;BME280;43675;50.030;21.952;2023-08-30T09:49:14;97641.84;;;25.98;62.55
57847;BME280;43675;50.030;21.952;2023-08-30T09:51:41;97646.85;;;25.91;62.04
57847;BME280;43675;50.030;21.952;2023-08-30T09:56:42;97657.11;;;25.69;62.26
57847;BME280;43675;50.030;21.952;2023-08-30T09:59:14;97659.48;;;25.52;62.31
57847;BME280;43675;50.030;21.952;2023-08-30T10:01:42;97669.89;;;25.35;62.68
57847;BME280;43675;50.030;21.952;2023-08-30T10:04:10;97667.67;;;25.18;63.00
57847;BME280;43675;50.030;21.952;2023-08-30T10:06:37;97668.25;;;25.03;63.07
57847;BME280;43675;50.030;21.952;2023-08-30T10:09:05;97666.98;;;24.93;63.32
57847;BME280;43675;50.030;21.952;2023-08-30T10:11:34;97663.98;;;24.88;63.45
57847;BME280;43675;50.030;21.952;2023-08-30T10:14:02;97657.80;;;24.85;63.48
57847;BME280;43675;50.030;21.952;2023-08-30T10:16:32;97657.05;;;24.86;63.49
57847;BME280;43675;50.030;21.952;2023-08-30T10:19:05;97657.05;;;24.96;63.71
57847;BME280;43675;50.030;21.952;2023-08-30T10:21:35;97654.63;;;25.16;63.33
57847;BME280;43675;50.030;21.952;2023-08-30T10:24:03;97647.23;;;25.46;62.90
57847;BME280;43675;50.030;21.952;2023-08-30T10:26:32;97649.80;;;25.84;62.21
57847;BME280;43675;50.030;21.952;2023-08-30T10:28:59;97641.11;;;26.20;61.27
57847;BME280;43675;50.030;21.952;2023-08-30T10:31:27;97640.52;;;26.51;60.12
57847;BME280;43675;50.030;21.952;2023-08-30T10:33:54;97640.43;;;26.79;59.47
57847;BME280;43675;50.030;21.952;2023-08-30T10:36:25;97639.38;;;27.00;58.35
57847;BME280;43675;50.030;21.952;2023-08-30T10:38:53;97639.02;;;27.19;58.02
57847;BME280;43675;50.030;21.952;2023-08-30T10:41:25;97635.85;;;27.44;57.85
57847;BME280;43675;50.030;21.952;2023-08-30T10:43:54;97634.11;;;27.67;57.28
57847;BME280;43675;50.030;21.952;2023-08-30T10:46:32;97627.52;;;27.86;56.77
57847;BME280;43675;50.030;21.952;2023-08-30T10:49:12;97623.77;;;27.95;56.02
57847;BME280;43675;50.030;21.952;2023-08-30T10:51:39;97620.54;;;28.04;56.09
57847;BME280;43675;50.030;21.952;2023-08-30T10:54:13;97613.10;;;28.11;55.92
57847;BME280;43675;50.030;21.952;2023-08-30T10:59:21;97604.36;;;28.17;55.38
57847;BME280;43675;50.030;21.952;2023-08-30T11:01:49;97604.14;;;28.15;55.18
57847;BME280;43675;50.030;21.952;2023-08-30T11:04:17;97606.05;;;28.07;54.96
57847;BME280;43675;50.030;21.952;2023-08-30T11:06:45;97603.62;;;27.99;54.64
57847;BME280;43675;50.030;21.952;2023-08-30T11:09:14;97602.10;;;27.87;54.84
57847;BME280;43675;50.030;21.952;2023-08-30T11:11:40;97598.70;;;27.74;54.98
57847;BME280;43675;50.030;21.952;2023-08-30T11:14:07;97598.75;;;27.65;54.95
57847;BME280;43675;50.030;21.952;2023-08-30T11:16:34;97598.66;;;27.62;55.35
57847;BME280;43675;50.030;21.952;2023-08-30T11:19:02;97596.08;;;27.62;55.84
57847;BME280;43675;50.030;21.952;2023-08-30T11:21:30;97592.44;;;27.62;55.79
57847;BME280;43675;50.030;21.952;2023-08-30T11:23:58;97595.34;;;27.61;55.59
57847;BME280;43675;50.030;21.952;2023-08-30T11:26:25;97590.13;;;27.61;55.55
57847;BME280;43675;50.030;21.952;2023-08-30T11:28:52;97589.14;;;27.62;55.34
57847;BME280;43675;50.030;21.952;2023-08-30T11:36:20;97585.69;;;27.65;54.66
57847;BME280;43675;50.030;21.952;2023-08-30T11:38:47;97583.27;;;27.69;54.05
57847;BME280;43675;50.030;21.952;2023-08-30T11:41:13;97582.27;;;27.78;53.80
57847;BME280;43675;50.030;21.952;2023-08-30T11:43:40;97581.52;;;27.91;54.08
57847;BME280;43675;50.030;21.952;2023-08-30T11:46:08;97576.19;;;28.05;53.24
57847;BME280;43675;50.030;21.952;2023-08-30T11:48:35;97573.42;;;28.22;52.67
57847;BME280;43675;50.030;21.952;2023-08-30T11:51:02;97575.83;;;28.43;52.28
57847;BME280;43675;50.030;21.952;2023-08-30T11:53:29;97572.34;;;28.58;51.93
57847;BME280;43675;50.030;21.952;2023-08-30T11:55:56;97576.19;;;28.63;51.22
57847;BME280;43675;50.030;21.952;2023-08-30T11:58:23;97571.41;;;28.62;50.83
57847;BME280;43675;50.030;21.952;2023-08-30T12:00:50;97572.95;;;28.51;50.60
57847;BME280;43675;50.030;21.952;2023-08-30T12:03:17;97578.88;;;28.41;50.82
57847;BME280;43675;50.030;21.952;2023-08-30T12:05:48;97581.80;;;28.35;50.50
57847;BME280;43675;50.030;21.952;2023-08-30T12:08:24;97580.75;;;28.34;50.90
57847;BME280;43675;50.030;21.952;2023-08-30T12:10:52;97578.70;;;28.28;50.56
57847;BME280;43675;50.030;21.952;2023-08-30T12:13:29;97576.00;;;28.18;50.67
57847;BME280;43675;50.030;21.952;2023-08-30T12:15:57;97568.54;;;28.07;50.74
57847;BME280;43675;50.030;21.952;2023-08-30T12:18:27;97569.48;;;28.01;50.38
57847;BME280;43675;50.030;21.952;2023-08-30T12:21:04;97567.02;;;28.03;50.65
57847;BME280;43675;50.030;21.952;2023-08-30T12:23:32;97569.64;;;28.10;50.94
57847;BME280;43675;50.030;21.952;2023-08-30T12:26:05;97573.23;;;28.17;50.64
57847;BME280;43675;50.030;21.952;2023-08-30T12:28:34;97571.06;;;28.22;50.40
57847;BME280;43675;50.030;21.952;2023-08-30T12:31:02;97567.09;;;28.24;50.25
57847;BME280;43675;50.030;21.952;2023-08-30T12:33:28;97563.40;;;28.21;50.31
57847;BME280;43675;50.030;21.952;2023-08-30T12:35:56;97561.21;;;28.16;50.08
57847;BME280;43675;50.030;21.952;2023-08-30T12:38:23;97560.16;;;28.14;50.17
57847;BME280;43675;50.030;21.952;2023-08-30T12:40:52;97553.21;;;28.14;50.16
57847;BME280;43675;50.030;21.952;2023-08-30T12:43:20;97548.60;;;28.16;49.99
57847;BME280;43675;50.030;21.952;2023-08-30T12:45:47;97547.71;;;28.15;50.07
57847;BME280;43675;50.030;21.952;2023-08-30T12:48:15;97544.54;;;28.08;50.07
57847;BME280;43675;50.030;21.952;2023-08-30T12:50:44;97543.44;;;28.00;50.21
57847;BME280;43675;50.030;21.952;2023-08-30T12:53:11;97540.46;;;27.91;50.17
57847;BME280;43675;50.030;21.952;2023-08-30T12:55:38;97535.30;;;27.81;50.53
57847;BME280;43675;50.030;21.952;2023-08-30T12:58:04;97531.55;;;27.76;50.24
57847;BME280;43675;50.030;21.952;2023-08-30T13:00:31;97522.97;;;27.73;50.23
57847;BME280;43675;50.030;21.952;2023-08-30T13:02:57;97521.42;;;27.65;50.21
57847;BME280;43675;50.030;21.952;2023-08-30T13:05:25;97519.84;;;27.59;50.52
57847;BME280;43675;50.030;21.952;2023-08-30T13:07:52;97519.05;;;27.53;50.43
57847;BME280;43675;50.030;21.952;2023-08-30T13:10:18;97517.88;;;27.47;50.93